Time;durP1;ratioP1;P1;durP2;ratioP2;P2;SDS_P1;SDS_P2;PMS_P1;PMS_P2;Temp;Humidity;BMP_temperature;BMP_pressure;BME280_temperature;BME280_humidity;BME280_pressure;Samples;Min_cycle;Max_cycle;Signal;HPM_P1;HPM_P2
2021/08/12 00:01:56;;;;;;;10.93;7.47;;;;;;;11.22;100.00;98355.41;5061119;28;20044;-83
2021/08/12 00:04:23;;;;;;;16.10;7.68;;;;;;;11.23;100.00;98367.84;5077844;28;20048;-84
2021/08/12 00:06:51;;;;;;;16.13;8.45;;;;;;;11.19;100.00;98364.13;5061692;28;20497;-82
2021/08/12 00:09:19;;;;;;;15.82;9.07;;;;;;;11.23;100.00;98362.41;5059504;28;20509;-82
2021/08/12 00:11:45;;;;;;;17.30;8.50;;;;;;;11.15;100.00;98360.41;5074893;28;20120;-82
2021/08/12 00:14:15;;;;;;;13.38;7.70;;;;;;;11.18;100.00;98367.13;5059802;28;20143;-82
2021/08/12 00:16:42;;;;;;;15.70;8.07;;;;;;;11.01;100.00;98359.59;5060028;28;20049;-83
2021/08/12 00:19:12;;;;;;;12.98;8.10;;;;;;;11.01;100.00;98362.31;5078751;28;20564;-84
2021/08/12 00:21:41;;;;;;;14.15;8.63;;;;;;;11.06;100.00;98374.97;5062877;28;20167;-84
2021/08/12 00:24:11;;;;;;;18.02;8.50;;;;;;;11.12;100.00;98379.19;5063933;28;20502;-83
2021/08/12 00:26:38;;;;;;;11.27;7.78;;;;;;;11.20;100.00;98378.50;5064595;28;20052;-84
2021/08/12 00:29:05;;;;;;;11.63;7.57;;;;;;;11.09;100.00;98358.09;5066074;28;20048;-82
2021/08/12 00:31:34;;;;;;;17.20;7.18;;;;;;;11.09;100.00;98372.47;5064974;28;20044;-81
2021/08/12 00:34:01;;;;;;;14.15;6.82;;;;;;;11.06;100.00;98367.63;5079242;28;20041;-81
2021/08/12 00:36:33;;;;;;;12.25;6.72;;;;;;;10.97;100.00;98361.28;5077667;28;20045;-85
2021/08/12 00:38:59;;;;;;;14.35;6.95;;;;;;;10.92;100.00;98357.88;5063790;28;20083;-82
2021/08/12 00:41:28;;;;;;;14.25;7.78;;;;;;;10.99;100.00;98361.81;5104779;28;20052;-81
2021/08/12 00:43:55;;;;;;;11.52;7.40;;;;;;;10.94;100.00;98363.81;5064705;28;20052;-83
2021/08/12 00:46:24;;;;;;;12.32;7.45;;;;;;;10.89;100.00;98367.41;5080709;28;20063;-81
2021/08/12 00:48:51;;;;;;;16.33;8.27;;;;;;;10.89;100.00;98364.69;5063864;28;20156;-82
2021/08/12 00:51:19;;;;;;;10.98;7.13;;;;;;;10.91;100.00;98373.34;5079993;28;20056;-82
2021/08/12 00:53:46;;;;;;;13.70;7.28;;;;;;;10.86;100.00;98356.38;5067014;28;20047;-86
2021/08/12 00:56:12;;;;;;;14.10;7.20;;;;;;;10.88;100.00;98354.16;5085517;28;20049;-81
2021/08/12 00:58:40;;;;;;;13.00;7.88;;;;;;;10.86;100.00;98365.31;5065287;28;20045;-80
2021/08/12 01:01:07;;;;;;;17.30;8.57;;;;;;;10.80;100.00;98354.84;5064018;28;20135;-83
2021/08/12 01:03:34;;;;;;;18.45;8.38;;;;;;;10.90;100.00;98360.06;5081219;28;20056;-83
2021/08/12 01:06:01;;;;;;;13.77;8.05;;;;;;;10.91;100.00;98350.84;5063147;28;20110;-82
2021/08/12 01:08:53;;;;;;;36.03;9.10;;;;;;;10.88;100.00;98354.16;5063258;28;20102;-81
2021/08/12 01:11:27;;;;;;;12.77;8.20;;;;;;;10.83;100.00;98343.41;5077679;28;20060;-83
2021/08/12 01:14:19;;;;;;;15.67;8.73;;;;;;;10.98;100.00;98360.19;5060918;28;20068;-81
2021/08/12 01:16:53;;;;;;;16.90;9.88;;;;;;;10.87;100.00;98344.41;5077568;28;20048;-83
2021/08/12 01:20:00;;;;;;;19.30;11.18;;;;;;;10.91;100.00;98354.38;5061024;28;20049;-83
2021/08/12 01:22:31;;;;;;;18.27;11.60;;;;;;;10.90;100.00;98343.81;5079217;28;20048;-84
2021/08/12 01:25:07;;;;;;;22.50;12.40;;;;;;;10.91;100.00;98350.84;5083434;28;20044;-83
2021/08/12 01:27:37;;;;;;;20.45;12.15;;;;;;;10.86;100.00;98345.53;5080691;28;20059;-85
2021/08/12 01:30:12;;;;;;;19.77;11.38;;;;;;;10.94;100.00;98352.97;5079694;28;20055;-84
2021/08/12 01:32:50;;;;;;;23.98;11.02;;;;;;;10.97;100.00;98360.50;5079258;28;20049;-82
2021/08/12 01:35:22;;;;;;;22.98;11.45;;;;;;;10.94;100.00;98358.41;5078471;28;20044;-82
2021/08/12 01:37:55;;;;;;;20.20;10.88;;;;;;;10.93;100.00;98351.34;5061131;28;20049;-82
2021/08/12 01:40:25;;;;;;;20.85;12.25;;;;;;;11.02;100.00;98339.53;5077510;28;20048;-81
2021/08/12 01:42:57;;;;;;;21.45;13.63;;;;;;;11.07;100.00;98352.97;5076817;28;20036;-85
2021/08/12 01:45:26;;;;;;;26.58;13.00;;;;;;;11.04;100.00;98341.94;5077012;28;20110;-82
2021/08/12 01:47:54;;;;;;;21.23;11.18;;;;;;;11.02;100.00;98342.22;5076851;28;20048;-83
2021/08/12 01:50:24;;;;;;;16.23;10.50;;;;;;;11.09;100.00;98333.72;5076970;28;20045;-83
2021/08/12 01:52:55;;;;;;;15.85;10.02;;;;;;;10.99;100.00;98323.88;5076433;28;20048;-81
2021/08/12 01:55:28;;;;;;;19.20;10.13;;;;;;;11.02;100.00;98336.81;5076720;28;20497;-81
2021/08/12 01:57:57;;;;;;;16.65;9.70;;;;;;;10.98;100.00;98337.72;5077080;28;20418;-83
2021/08/12 02:00:24;;;;;;;18.02;10.70;;;;;;;10.94;100.00;98334.00;5060167;28;20608;-80
2021/08/12 02:02:52;;;;;;;15.30;10.63;;;;;;;10.97;100.00;98338.84;5093500;28;20045;-82
2021/08/12 02:05:21;;;;;;;18.95;10.90;;;;;;;10.88;100.00;98349.56;5077692;28;20494;-81
2021/08/12 02:07:48;;;;;;;18.30;12.18;;;;;;;10.81;100.00;98345.63;5064328;28;20048;-84
2021/08/12 02:10:16;;;;;;;19.63;11.75;;;;;;;10.83;100.00;98352.34;5065779;28;20135;-82
2021/08/12 02:12:44;;;;;;;19.35;11.15;;;;;;;10.80;100.00;98347.53;5062138;28;20078;-83
2021/08/12 02:15:12;;;;;;;21.08;10.95;;;;;;;10.79;100.00;98347.84;5061709;28;20056;-81
2021/08/12 02:17:44;;;;;;;17.95;10.23;;;;;;;10.73;100.00;98352.53;5081227;28;20112;-84
2021/08/12 02:20:15;;;;;;;16.83;10.18;;;;;;;10.68;100.00;98341.81;5071273;28;20064;-81
2021/08/12 02:22:57;;;;;;;18.40;11.25;;;;;;;10.78;100.00;98348.94;5082549;28;20051;-82
2021/08/12 02:25:30;;;;;;;18.83;10.98;;;;;;;10.75;100.00;98344.91;5072823;28;20048;-86
2021/08/12 02:28:02;;;;;;;18.45;10.68;;;;;;;10.73;100.00;98351.72;5077211;28;20048;-81
2021/08/12 02:30:34;;;;;;;24.90;12.82;;;;;;;10.64;100.00;98351.59;5058904;28;20070;-81
2021/08/12 02:33:05;;;;;;;21.90;13.05;;;;;;;10.50;100.00;98342.66;5075178;28;20072;-82
2021/08/12 02:35:36;;;;;;;20.92;11.98;;;;;;;10.56;100.00;98355.00;5059655;28;20048;-83
2021/08/12 02:38:04;;;;;;;19.58;12.88;;;;;;;10.62;100.00;98353.81;5075985;28;20036;-82
2021/08/12 02:40:34;;;;;;;23.08;12.02;;;;;;;10.45;100.00;98359.00;5075641;28;20040;-82
2021/08/12 02:43:01;;;;;;;18.75;11.48;;;;;;;10.44;100.00;98354.66;5075225;28;20492;-81
2021/08/12 02:45:29;;;;;;;22.42;12.20;;;;;;;10.35;100.00;98340.22;5059834;28;20048;-81
2021/08/12 02:48:01;;;;;;;17.20;11.10;;;;;;;10.37;100.00;98352.34;5040665;28;20045;-85
2021/08/12 02:50:28;;;;;;;22.25;12.23;;;;;;;10.39;100.00;98349.34;5055238;28;20041;-82
2021/08/12 02:52:55;;;;;;;18.90;12.18;;;;;;;10.50;100.00;98346.16;5039147;28;20080;-81
2021/08/12 02:55:25;;;;;;;17.50;11.40;;;;;;;10.73;100.00;98349.84;5039503;28;20052;-82
2021/08/12 02:58:03;;;;;;;24.35;11.48;;;;;;;10.62;100.00;98342.97;5055602;28;20139;-83
2021/08/12 03:00:32;;;;;;;22.58;12.35;;;;;;;10.49;100.00;98341.84;5040117;28;20045;-81
2021/08/12 03:03:07;;;;;;;24.58;12.07;;;;;;;10.40;100.00;98337.41;5049742;28;20037;-81
2021/08/12 03:05:38;;;;;;;25.27;12.85;;;;;;;10.35;100.00;98357.22;5043039;28;20056;-82
2021/08/12 03:08:12;;;;;;;25.65;12.38;;;;;;;10.34;100.00;98346.72;5040250;28;20143;-81
2021/08/12 03:10:40;;;;;;;23.65;13.25;;;;;;;10.43;100.00;98351.16;5047309;28;20056;-86
2021/08/12 03:13:16;;;;;;;28.67;11.65;;;;;;;10.51;100.00;98350.47;5046282;28;20409;-82
2021/08/12 03:15:44;;;;;;;20.55;11.32;;;;;;;10.52;100.00;98345.88;5039739;28;20068;-85
2021/08/12 03:18:11;;;;;;;16.27;10.50;;;;;;;10.58;100.00;98352.81;5038399;28;20045;-83
2021/08/12 03:20:41;;;;;;;15.32;9.77;;;;;;;10.55;100.00;98356.09;5020789;28;20064;-82
2021/08/12 03:23:09;;;;;;;17.92;10.13;;;;;;;10.44;100.00;98344.66;5036533;28;20091;-85
2021/08/12 03:25:36;;;;;;;19.73;11.35;;;;;;;10.57;100.00;98353.91;5020081;28;20049;-81
2021/08/12 03:28:04;;;;;;;19.23;11.80;;;;;;;10.46;100.00;98347.03;5020765;28;20049;-82
2021/08/12 03:30:31;;;;;;;15.05;8.98;;;;;;;10.39;100.00;98335.81;5020677;28;20049;-83
2021/08/12 03:32:58;;;;;;;16.98;10.88;;;;;;;10.41;100.00;98339.00;5047309;28;20251;-87
2021/08/12 03:35:25;;;;;;;20.98;10.93;;;;;;;10.38;100.00;98332.28;5036811;28;20045;-83
2021/08/12 03:37:52;;;;;;;19.75;10.15;;;;;;;10.41;100.00;98352.53;5032132;28;20121;-82
2021/08/12 03:40:19;;;;;;;16.40;9.38;;;;;;;10.39;100.00;98346.63;5032473;28;20055;-82
2021/08/12 03:42:45;;;;;;;18.73;10.45;;;;;;;10.42;100.00;98348.75;5033940;28;20042;-80
2021/08/12 03:45:12;;;;;;;18.50;10.20;;;;;;;10.47;100.00;98344.06;5019046;28;20495;-80
2021/08/12 03:47:39;;;;;;;19.73;10.32;;;;;;;10.46;100.00;98352.47;5051815;28;20049;-81
2021/08/12 03:50:06;;;;;;;15.70;10.02;;;;;;;10.38;100.00;98350.41;5054504;28;20425;-82
2021/08/12 03:52:32;;;;;;;17.63;9.88;;;;;;;10.41;100.00;98355.25;5051776;28;20038;-81
2021/08/12 03:54:59;;;;;;;18.52;11.02;;;;;;;10.57;100.00;98360.13;5034274;28;20060;-81
2021/08/12 03:57:26;;;;;;;16.33;10.80;;;;;;;10.60;100.00;98359.53;5033607;23;20045;-79
2021/08/12 03:59:52;;;;;;;18.90;10.75;;;;;;;10.59;100.00;98359.81;5046626;28;20124;-80
2021/08/12 04:02:19;;;;;;;22.63;11.20;;;;;;;10.62;100.00;98361.94;5050244;28;20047;-80
2021/08/12 04:04:46;;;;;;;17.63;10.57;;;;;;;10.57;100.00;98362.03;5051396;28;20068;-81
2021/08/12 04:07:13;;;;;;;18.67;10.93;;;;;;;10.56;100.00;98361.22;5050709;28;20041;-79
2021/08/12 04:09:40;;;;;;;16.02;10.15;;;;;;;10.61;100.00;98366.53;5033340;28;20045;-79
2021/08/12 04:12:08;;;;;;;17.90;10.93;;;;;;;10.68;100.00;98371.59;5049753;28;20083;-78
2021/08/12 04:14:35;;;;;;;20.05;11.05;;;;;;;10.72;100.00;98374.50;5052044;28;20417;-80
2021/08/12 04:17:02;;;;;;;18.30;11.05;;;;;;;10.71;100.00;98365.56;5051679;28;20181;-79
2021/08/12 04:19:32;;;;;;;18.63;12.00;;;;;;;10.70;100.00;98366.69;5051970;28;20056;-79
2021/08/12 04:22:01;;;;;;;21.10;11.25;;;;;;;10.72;100.00;98363.66;5051903;28;20386;-79
2021/08/12 04:24:28;;;;;;;18.67;11.13;;;;;;;10.72;100.00;98361.75;5067935;28;20060;-81
2021/08/12 04:26:56;;;;;;;19.23;11.00;;;;;;;10.63;100.00;98363.56;5052134;28;20264;-81
2021/08/12 04:29:23;;;;;;;20.48;12.55;;;;;;;10.65;100.00;98358.63;5053064;28;20059;-80
2021/08/12 04:31:49;;;;;;;20.83;12.45;;;;;;;10.73;100.00;98368.78;5051212;28;20078;-78
2021/08/12 04:34:16;;;;;;;23.42;12.88;;;;;;;10.84;100.00;98362.06;5050611;28;20053;-81
2021/08/12 04:36:45;;;;;;;22.73;11.98;;;;;;;10.90;100.00;98366.31;5050550;28;20041;-80
2021/08/12 04:39:13;;;;;;;19.17;10.73;;;;;;;10.92;100.00;98364.09;5051779;28;20090;-80
2021/08/12 04:41:41;;;;;;;22.30;12.05;;;;;;;10.98;100.00;98354.78;5051562;28;20155;-80
2021/08/12 04:44:08;;;;;;;20.23;12.27;;;;;;;11.04;100.00;98358.19;5051889;28;20045;-80
2021/08/12 04:46:36;;;;;;;21.98;12.20;;;;;;;11.10;100.00;98352.38;5068786;28;20049;-81
2021/08/12 04:49:03;;;;;;;22.08;12.70;;;;;;;11.21;100.00;98355.69;5051884;28;20037;-80
2021/08/12 04:51:31;;;;;;;22.50;13.73;;;;;;;11.33;100.00;98357.91;5051274;28;20045;-79
2021/08/12 04:54:05;;;;;;;24.70;13.68;;;;;;;11.44;100.00;98367.44;5036150;28;20132;-80
2021/08/12 04:56:34;;;;;;;22.38;14.05;;;;;;;11.54;100.00;98361.78;5052320;28;20394;-81
2021/08/12 04:59:03;;;;;;;24.85;14.20;;;;;;;11.65;100.00;98368.63;5045739;28;20045;-81
2021/08/12 05:01:31;;;;;;;23.00;14.73;;;;;;;11.72;100.00;98356.28;5042396;28;20041;-75
2021/08/12 05:03:58;;;;;;;28.40;16.38;;;;;;;11.85;100.00;98360.88;5042090;28;20041;-79
2021/08/12 05:06:25;;;;;;;26.83;15.13;;;;;;;11.92;100.00;98355.03;5038003;28;20037;-80
2021/08/12 05:08:51;;;;;;;25.85;14.75;;;;;;;11.92;100.00;98360.47;5036415;28;20042;-80
2021/08/12 05:11:18;;;;;;;21.02;13.48;;;;;;;11.95;100.00;98356.34;5035250;28;20053;-80
2021/08/12 05:13:47;;;;;;;26.38;14.43;;;;;;;12.05;100.00;98361.53;5035008;28;20123;-80
2021/08/12 05:16:14;;;;;;;23.20;14.05;;;;;;;12.17;100.00;98357.16;5029706;28;20053;-79
2021/08/12 05:18:47;;;;;;;23.63;13.73;;;;;;;12.33;100.00;98363.84;5029840;28;20041;-79
2021/08/12 05:21:13;;;;;;;23.90;14.02;;;;;;;12.39;100.00;98359.06;5042549;28;20073;-80
2021/08/12 05:23:42;;;;;;;23.83;14.45;;;;;;;12.54;100.00;98364.16;5030748;28;20152;-79
2021/08/12 05:26:08;;;;;;;24.00;13.70;;;;;;;12.65;100.00;98361.97;5050578;28;20518;-80
2021/08/12 05:28:35;;;;;;;18.60;12.13;;;;;;;12.73;100.00;98366.66;5049612;28;20061;-80
2021/08/12 05:31:03;;;;;;;21.70;12.80;;;;;;;12.80;100.00;98361.59;5049521;28;20049;-79
2021/08/12 05:33:36;;;;;;;18.33;11.75;;;;;;;12.94;100.00;98363.09;5050739;28;20049;-80
2021/08/12 05:36:04;;;;;;;19.98;11.88;;;;;;;13.05;100.00;98358.22;5048053;28;20490;-79
2021/08/12 05:38:32;;;;;;;16.80;10.70;;;;;;;13.12;100.00;98347.72;5049625;28;20481;-80
2021/08/12 05:40:58;;;;;;;22.63;12.23;;;;;;;13.23;100.00;98361.81;5050817;28;20442;-79
2021/08/12 05:43:26;;;;;;;23.98;12.10;;;;;;;13.39;100.00;98363.81;5050439;28;20090;-80
2021/08/12 05:45:53;;;;;;;18.98;11.02;;;;;;;13.48;100.00;98363.81;5049877;28;20118;-81
2021/08/12 05:48:21;;;;;;;18.42;11.45;;;;;;;13.60;100.00;98366.75;5032264;28;20052;-82
2021/08/12 05:50:48;;;;;;;17.65;10.77;;;;;;;13.68;100.00;98366.75;5051444;28;20123;-82
2021/08/12 05:53:16;;;;;;;22.98;10.43;;;;;;;13.80;100.00;98354.47;5053688;28;20617;-80
2021/08/12 05:55:43;;;;;;;21.33;10.35;;;;;;;13.92;100.00;98365.53;5051846;28;20189;-80
2021/08/12 05:58:10;;;;;;;17.92;10.00;;;;;;;14.00;100.00;98362.00;5050547;28;20049;-81
2021/08/12 06:00:38;;;;;;;18.63;9.88;;;;;;;14.11;100.00;98363.31;5031600;28;20519;-81
2021/08/12 06:03:09;;;;;;;16.23;9.43;;;;;;;14.14;100.00;98352.56;5048076;28;20053;-82
2021/08/12 06:05:37;;;;;;;17.90;9.25;;;;;;;14.26;100.00;98362.81;5048893;28;20056;-81
2021/08/12 06:08:06;;;;;;;17.35;9.55;;;;;;;14.35;100.00;98353.56;5049572;28;20227;-80
2021/08/12 06:10:33;;;;;;;14.80;8.68;;;;;;;14.48;100.00;98354.50;5049489;28;20045;-81
2021/08/12 06:13:00;;;;;;;19.00;9.07;;;;;;;14.58;100.00;98356.88;5048698;28;20044;-80
2021/08/12 06:15:29;;;;;;;13.52;8.88;;;;;;;14.69;100.00;98369.06;5030740;28;20490;-80
2021/08/12 06:17:56;;;;;;;16.10;9.55;;;;;;;14.82;100.00;98362.63;5048606;28;20108;-81
2021/08/12 06:20:23;;;;;;;17.75;11.88;;;;;;;14.93;100.00;98358.44;5047487;28;20047;-80
2021/08/12 06:22:52;;;;;;;18.40;9.63;;;;;;;15.02;100.00;98349.44;5047218;28;20079;-81
2021/08/12 06:25:21;;;;;;;15.68;9.40;;;;;;;15.11;100.00;98344.72;5031379;28;20481;-80
2021/08/12 06:27:48;;;;;;;15.07;10.05;;;;;;;15.25;100.00;98351.56;5030789;28;20052;-81
2021/08/12 06:30:16;;;;;;;13.23;8.70;;;;;;;15.37;100.00;98357.16;5030798;28;20160;-81
2021/08/12 06:32:45;;;;;;;15.05;8.48;;;;;;;15.53;100.00;98365.59;5047279;28;20502;-80
2021/08/12 06:35:13;;;;;;;15.98;8.40;;;;;;;15.65;100.00;98353.97;5048578;28;20052;-80
2021/08/12 06:37:59;;;;;;;12.40;8.30;;;;;;;15.86;100.00;98363.81;5045793;28;20082;-81
2021/08/12 06:40:26;;;;;;;;;;;;;;;16.06;100.00;98362.22;5030241;28;20052;-81
2021/08/12 06:42:56;;;;;;;14.27;8.00;;;;;;;16.18;100.00;98365.81;5046108;28;19975;-80
2021/08/12 06:45:25;;;;;;;20.17;8.30;;;;;;;16.36;100.00;98365.69;5047644;28;20132;-81
2021/08/12 06:47:52;;;;;;;14.23;7.50;;;;;;;16.50;100.00;98358.78;5047255;28;20083;-81
2021/08/12 06:50:21;;;;;;;17.80;7.05;;;;;;;16.60;100.00;98358.41;5047135;28;20090;-81
2021/08/12 06:52:48;;;;;;;12.63;7.03;;;;;;;16.79;100.00;98349.69;5046794;28;20056;-80
2021/08/12 06:55:20;;;;;;;13.10;6.97;;;;;;;16.99;100.00;98346.09;5046983;28;20037;-80
2021/08/12 06:57:47;;;;;;;13.77;7.30;;;;;;;17.13;100.00;98352.06;5045623;28;20479;-80
2021/08/12 07:00:16;;;;;;;10.65;6.85;;;;;;;17.30;100.00;98354.59;5046309;28;20057;-82
2021/08/12 07:02:43;;;;;;;14.48;6.38;;;;;;;17.43;100.00;98344.44;5046292;28;20107;-80
2021/08/12 07:05:12;;;;;;;14.48;6.90;;;;;;;17.62;100.00;98354.84;5047562;28;20394;-79
2021/08/12 07:07:39;;;;;;;13.00;6.60;;;;;;;17.72;100.00;98351.66;5045659;28;20045;-80
2021/08/12 07:10:07;;;;;;;9.68;6.78;;;;;;;17.91;100.00;98349.91;5045811;28;20070;-81
2021/08/12 07:12:35;;;;;;;13.10;6.72;;;;;;;18.07;100.00;98357.44;5046356;28;20037;-80
2021/08/12 07:15:05;;;;;;;10.85;6.50;;;;;;;18.19;100.00;98343.69;5046660;28;20059;-80
2021/08/12 07:17:33;;;;;;;11.27;6.63;;;;;;;18.36;100.00;98344.19;5046737;28;20043;-79
2021/08/12 07:19:59;;;;;;;10.63;6.32;;;;;;;18.58;100.00;98351.91;5028603;28;20068;-81
2021/08/12 07:22:26;;;;;;;11.20;6.40;;;;;;;18.76;100.00;98343.38;5046239;28;20041;-80
2021/08/12 07:24:52;;;;;;;15.20;6.78;;;;;;;18.91;100.00;98345.34;5045326;28;20053;-81
2021/08/12 07:27:19;;;;;;;11.73;6.15;;;;;;;19.09;100.00;98347.41;5045167;28;20056;-81
2021/08/12 07:29:45;;;;;;;14.85;6.03;;;;;;;19.26;100.00;98346.25;5029577;28;20121;-81
2021/08/12 07:32:12;;;;;;;20.20;5.50;;;;;;;19.39;100.00;98358.78;5031374;28;20045;-81
2021/08/12 07:34:38;;;;;;;12.20;5.80;;;;;;;19.50;100.00;98359.84;5048000;28;20060;-81
2021/08/12 07:37:05;;;;;;;11.98;5.88;;;;;;;19.62;100.00;98343.25;5046442;28;20053;-81
2021/08/12 07:39:32;;;;;;;11.43;5.05;;;;;;;19.79;100.00;98353.06;5049316;28;20060;-81
2021/08/12 07:41:58;;;;;;;9.23;5.45;;;;;;;19.95;100.00;98347.56;5045099;28;20468;-81
2021/08/12 07:44:27;;;;;;;7.60;5.68;;;;;;;20.18;100.00;98359.44;5046120;28;20052;-81
2021/08/12 07:46:54;;;;;;;19.23;5.32;;;;;;;20.30;100.00;98353.84;5045160;28;20441;-81
2021/08/12 07:49:21;;;;;;;9.45;5.07;;;;;;;20.49;100.00;98353.84;5029315;28;20053;-81
2021/08/12 07:51:52;;;;;;;11.13;4.00;;;;;;;20.62;100.00;98351.75;5029023;28;20041;-81
2021/08/12 07:54:20;;;;;;;7.90;5.07;;;;;;;20.67;100.00;98348.72;5029348;28;20387;-80
2021/08/12 07:56:48;;;;;;;7.38;4.03;;;;;;;20.86;100.00;98354.16;5029616;28;20226;-82
2021/08/12 07:59:16;;;;;;;5.28;3.83;;;;;;;21.09;100.00;98344.81;5028948;28;20072;-80
2021/08/12 08:01:44;;;;;;;8.63;4.22;;;;;;;21.26;100.00;98348.25;5028894;28;20045;-81
2021/08/12 08:04:14;;;;;;;8.23;4.25;;;;;;;21.47;100.00;98349.38;5030991;28;20041;-81
2021/08/12 08:06:44;;;;;;;11.82;4.53;;;;;;;21.64;100.00;98350.84;5030324;28;20068;-82
2021/08/12 08:09:14;;;;;;;13.05;4.72;;;;;;;21.64;100.00;98357.16;5031332;28;20064;-81
2021/08/12 08:11:41;;;;;;;13.18;4.68;;;;;;;21.75;100.00;98357.31;5046716;28;20047;-81
2021/08/12 08:14:11;;;;;;;11.25;4.50;;;;;;;21.75;100.00;98357.31;5030967;28;20045;-81
2021/08/12 08:16:43;;;;;;;5.82;4.22;;;;;;;22.00;100.00;98355.75;5031278;28;20052;-81
2021/08/12 08:19:16;;;;;;;7.82;4.22;;;;;;;22.21;100.00;98356.06;5048462;28;20056;-82
2021/08/12 08:21:50;;;;;;;9.85;4.20;;;;;;;22.19;100.00;98350.13;5031237;28;20140;-81
2021/08/12 08:24:19;;;;;;;6.72;3.70;;;;;;;22.37;100.00;98366.91;5031332;28;20555;-81
2021/08/12 08:27:03;;;;;;;5.53;3.40;;;;;;;22.41;100.00;98348.44;5048937;23;20086;-81
2021/08/12 08:29:46;;;;;;;7.80;3.67;;;;;;;22.50;100.00;98343.44;5049172;28;20481;-82
2021/08/12 08:32:52;;;;;;;7.63;3.78;;;;;;;22.72;100.00;98353.56;5045657;28;20060;-81
2021/08/12 08:35:34;;;;;;;6.63;4.00;;;;;;;22.87;100.00;98351.75;5032324;28;20072;-81
2021/08/12 08:38:15;;;;;;;5.15;3.47;;;;;;;22.89;100.00;98352.19;5029359;28;20048;-81
2021/08/12 08:41:02;;;;;;;5.25;3.33;;;;;;;23.06;100.00;98335.00;5062103;28;20068;-81
2021/08/12 08:44:19;;;;;;;10.95;3.78;;;;;;;23.22;100.00;98348.56;5047314;28;20267;-82
2021/08/12 08:47:18;;;;;;;4.70;3.60;;;;;;;23.26;97.80;98341.09;5046190;28;20047;-81
2021/08/12 08:50:26;;;;;;;6.70;3.20;;;;;;;23.58;95.59;98346.94;5040913;28;20505;-81
2021/08/12 08:53:32;;;;;;;4.05;2.95;;;;;;;23.37;68.02;98333.72;5050815;28;20115;-80
2021/08/12 08:56:29;;;;;;;6.38;3.15;;;;;;;23.80;75.81;98345.91;5052108;28;20045;-81
2021/08/12 08:59:16;;;;;;;4.93;3.10;;;;;;;23.96;95.59;98346.41;5033509;28;20491;-81
2021/08/12 09:01:56;;;;;;;5.35;3.33;;;;;;;24.13;82.93;98354.84;5048946;28;20055;-80
2021/08/12 09:04:34;;;;;;;5.90;3.03;;;;;;;23.66;92.26;98330.03;5048738;28;20045;-81
2021/08/12 09:07:11;;;;;;;6.30;3.38;;;;;;;24.27;78.19;98329.22;5048223;28;20498;-81
2021/08/12 09:09:45;;;;;;;5.50;2.92;;;;;;;24.31;78.71;98321.75;5045423;28;20045;-81
2021/08/12 09:12:14;;;;;;;4.88;3.20;;;;;;;24.92;72.13;98320.78;5032609;28;20577;-81
2021/08/12 09:15:02;;;;;;;5.18;3.05;;;;;;;25.69;60.70;98335.91;5049290;28;20063;-82
2021/08/12 09:17:51;;;;;;;4.53;3.08;;;;;;;25.32;58.95;98312.13;5033231;28;20060;-81
2021/08/12 09:20:45;;;;;;;5.55;2.88;;;;;;;25.45;60.96;98303.44;5033966;28;20063;-81
2021/08/12 09:24:01;;;;;;;4.93;2.88;;;;;;;25.37;60.37;98297.06;5051606;28;20059;-81
2021/08/12 09:27:34;;;;;;;6.47;3.25;;;;;;;25.18;67.21;98305.78;5060093;28;20140;-81
2021/08/12 09:31:08;;;;;;;4.22;3.13;;;;;;;25.07;55.22;98305.78;5041089;28;20045;-81
2021/08/12 09:34:11;;;;;;;4.57;3.08;;;;;;;25.77;54.76;98316.09;5039832;28;20152;-82
2021/08/12 09:37:09;;;;;;;6.05;3.03;;;;;;;26.33;56.31;98295.75;5048780;28;20048;-81
2021/08/12 09:39:46;;;;;;;6.82;2.92;;;;;;;25.99;58.28;98300.19;5047665;28;20072;-82
2021/08/12 09:42:30;;;;;;;6.40;3.00;;;;;;;26.83;55.20;98288.00;5050707;28;20055;-80
2021/08/12 09:45:54;;;;;;;4.88;2.78;;;;;;;26.83;55.20;98288.00;5061922;28;20117;-81
2021/08/12 09:48:24;;;;;;;5.35;2.90;;;;;;;27.84;48.92;98301.50;5048478;23;20061;-78
2021/08/12 09:51:09;;;;;;;5.95;3.28;;;;;;;27.73;45.98;98306.38;5023952;28;20049;-80
2021/08/12 09:53:36;;;;;;;7.03;3.20;;;;;;;27.67;45.49;98303.25;5016586;28;20041;-79
2021/08/12 09:56:10;;;;;;;4.50;3.15;;;;;;;27.78;46.75;98301.16;5041453;28;20045;-79
2021/08/12 09:58:38;;;;;;;4.00;2.60;;;;;;;28.04;46.89;98304.50;5039120;28;20050;-79
2021/08/12 10:01:20;;;;;;;4.65;3.10;;;;;;;27.79;46.39;98299.97;5021650;28;20068;-79
2021/08/12 10:03:51;;;;;;;3.83;2.95;;;;;;;27.26;49.50;98307.16;5040080;28;20045;-79
2021/08/12 10:06:22;;;;;;;5.57;3.05;;;;;;;27.39;50.84;98297.94;5041685;28;20038;-79
2021/08/12 10:08:49;;;;;;;4.72;3.08;;;;;;;27.53;47.51;98305.38;5040514;28;20099;-79
2021/08/12 10:11:28;;;;;;;5.80;3.05;;;;;;;27.36;47.99;98297.94;5037022;28;20048;-79
2021/08/12 10:14:06;;;;;;;4.35;2.75;;;;;;;27.18;45.36;98304.44;5037296;28;20037;-79
2021/08/12 10:16:34;;;;;;;4.22;3.00;;;;;;;27.41;47.29;98306.66;5051217;28;20053;-80
2021/08/12 10:19:05;;;;;;;4.82;3.30;;;;;;;27.51;45.40;98316.13;5034935;28;20140;-79
2021/08/12 10:21:37;;;;;;;7.30;3.67;;;;;;;28.43;42.34;98313.22;5037553;28;20045;-80
2021/08/12 10:24:05;;;;;;;6.18;3.00;;;;;;;28.70;43.23;98308.50;5036916;28;20144;-79
2021/08/12 10:26:34;;;;;;;6.47;3.40;;;;;;;29.31;43.09;98306.44;5036466;28;20045;-79
2021/08/12 10:29:10;;;;;;;5.28;3.38;;;;;;;28.93;42.25;98300.19;5036846;28;20056;-80
2021/08/12 10:31:39;;;;;;;6.63;3.20;;;;;;;29.19;43.44;98300.66;5037405;28;20299;-79
2021/08/12 10:34:06;;;;;;;5.05;3.10;;;;;;;28.94;43.13;98301.78;5020168;28;20045;-79
2021/08/12 10:36:32;;;;;;;4.93;3.20;;;;;;;30.12;38.76;98309.84;5035342;28;20041;-79
2021/08/12 10:39:00;;;;;;;7.78;3.28;;;;;;;29.71;39.84;98301.78;5035716;28;20049;-79
2021/08/12 10:41:27;;;;;;;5.50;3.75;;;;;;;30.50;41.23;98293.53;5033800;28;20096;-79
2021/08/12 10:44:00;;;;;;;4.85;3.83;;;;;;;30.34;39.82;98296.22;5032103;28;20545;-79
2021/08/12 10:46:36;;;;;;;7.22;3.58;;;;;;;30.77;39.94;98296.94;5032624;28;20057;-80
2021/08/12 10:49:25;;;;;;;4.88;3.50;;;;;;;30.89;37.61;98287.09;5048647;28;20128;-79
2021/08/12 10:52:01;;;;;;;6.72;3.85;;;;;;;31.54;37.96;98294.34;5032497;28;20055;-79
2021/08/12 10:54:28;;;;;;;5.22;4.05;;;;;;;32.43;35.73;98292.75;5031149;28;20049;-79
2021/08/12 10:57:15;;;;;;;5.13;3.78;;;;;;;32.15;36.43;98296.38;5031797;28;20045;-79
2021/08/12 10:59:42;;;;;;;4.55;3.47;;;;;;;31.47;34.41;98294.53;5030792;28;20100;-78
2021/08/12 11:02:28;;;;;;;5.18;3.53;;;;;;;31.70;33.93;98297.13;5030374;28;20095;-79
2021/08/12 11:05:04;;;;;;;5.90;3.25;;;;;;;30.12;36.75;98290.28;5031657;28;20053;-79
2021/08/12 11:08:01;;;;;;;5.50;3.70;;;;;;;29.45;36.99;98295.03;5035905;28;20048;-80
2021/08/12 11:10:52;;;;;;;4.55;3.60;;;;;;;29.65;37.70;98270.75;5021311;28;20424;-80
2021/08/12 11:13:32;;;;;;;5.10;3.88;;;;;;;29.60;40.46;98278.84;5033829;28;20064;-80
2021/08/12 11:15:59;;;;;;;5.30;3.85;;;;;;;29.57;37.74;98286.09;5031694;28;20056;-80
2021/08/12 11:18:53;;;;;;;5.53;3.20;;;;;;;29.34;38.35;98279.69;5032998;28;20064;-79
2021/08/12 11:21:40;;;;;;;5.65;3.35;;;;;;;29.79;39.08;98280.91;5031981;28;20050;-79
2021/08/12 11:24:06;;;;;;;5.07;3.53;;;;;;;30.01;36.65;98273.72;5032383;28;20048;-80
2021/08/12 11:26:44;;;;;;;4.68;3.55;;;;;;;30.45;38.08;98274.47;5032321;28;20119;-79
2021/08/12 11:29:34;;;;;;;6.40;3.30;;;;;;;31.90;35.87;98269.03;5031599;28;20045;-78
2021/08/12 11:32:14;;;;;;;4.22;3.22;;;;;;;32.26;35.17;98272.44;5014677;28;20318;-78
2021/08/12 11:34:56;;;;;;;5.55;3.45;;;;;;;33.09;31.94;98272.34;5032219;28;20430;-80
2021/08/12 11:37:30;;;;;;;5.78;3.60;;;;;;;34.32;35.43;98268.16;5033380;28;20427;-79
2021/08/12 11:40:04;;;;;;;5.90;3.60;;;;;;;34.89;31.15;98266.78;5032907;28;20049;-79
2021/08/12 11:42:43;;;;;;;5.22;4.07;;;;;;;33.65;33.16;98252.88;5031296;28;20129;-80
2021/08/12 11:45:17;;;;;;;3.72;3.30;;;;;;;33.50;35.86;98258.16;5032916;28;20046;-80